Wetterdaten von Putzkau
Wetterdaten: aktuell Samstag, 12.06.2021 13:00
Datum Zeit Temp. A. Feuchte A. Luftdruck Regen Wind Windben
12.06.2021 13:00 24,4 C 60 % 1017,9 hPa 0,0 l/m 2,6 km/h (1 Bft) 2,9 km/h (1 Bft)
12.06.2021 12:27 22,9 C 67 % 1018,4 hPa 0,0 l/m 1,9 km/h (1 Bft) 2,7 km/h (1 Bft)
12.06.2021 11:27 22,7 C 66 % 1018,5 hPa 0,0 l/m 3,2 km/h (1 Bft) 3,4 km/h (1 Bft)
12.06.2021 10:27 24,1 C 60 % 1018,4 hPa 0,0 l/m 3,4 km/h (1 Bft) 4,3 km/h (1 Bft)
12.06.2021 09:27 23,5 C 69 % 1018,7 hPa 0,0 l/m 1,6 km/h (1 Bft) 0,0 km/h (0 Bft)
12.06.2021 08:27 20,2 C 76 % 1019,5 hPa 0,0 l/m 0,3 km/h (0 Bft) 0,0 km/h (0 Bft)
12.06.2021 07:27 18,1 C 82 % 1019,6 hPa 0,0 l/m 0,0 km/h (0 Bft) 0,0 km/h (0 Bft)
12.06.2021 06:27 16,2 C 83 % 1019,6 hPa 0,0 l/m 0,0 km/h (0 Bft) 0,0 km/h (0 Bft)
12.06.2021 05:27 15,1 C 84 % 1019,6 hPa 0,0 l/m 0,0 km/h (0 Bft) 0,0 km/h (0 Bft)
12.06.2021 04:27 14,8 C 85 % 1019,7 hPa 0,0 l/m 0,0 km/h (0 Bft) 0,0 km/h (0 Bft)
12.06.2021 03:27 13,6 C 84 % 1020,1 hPa 0,0 l/m 0,0 km/h (0 Bft) 0,0 km/h (0 Bft)
12.06.2021 02:27 13,3 C 83 % 1020,2 hPa 0,0 l/m 0,0 km/h (0 Bft) 0,0 km/h (0 Bft)
12.06.2021 01:27 13,7 C 82 % 1020,6 hPa 0,0 l/m 0,0 km/h (0 Bft) 0,0 km/h (0 Bft)
12.06.2021 00:27 14,4 C 80 % 1020,6 hPa 0,0 l/m 0,0 km/h (0 Bft) 0,0 km/h (0 Bft)
11.06.2021 23:27 15,0 C 78 % 1020,7 hPa 0,0 l/m 0,0 km/h (0 Bft) 0,0 km/h (0 Bft)
11.06.2021 22:27 16,2 C 75 % 1020,6 hPa 0,0 l/m 0,0 km/h (0 Bft) 0,0 km/h (0 Bft)
11.06.2021 21:27 18,1 C 70 % 1020,4 hPa 0,0 l/m 0,0 km/h (0 Bft) 0,0 km/h (0 Bft)
11.06.2021 20:27 21,5 C 63 % 1020,1 hPa 0,0 l/m 0,0 km/h (0 Bft) 0,0 km/h (0 Bft)
11.06.2021 19:27 22,6 C 64 % 1020,1 hPa 0,0 l/m 0,0 km/h (0 Bft) 0,0 km/h (0 Bft)
11.06.2021 18:27 21,4 C 62 % 1020,4 hPa 0,0 l/m 0,0 km/h (0 Bft) 0,0 km/h (0 Bft)
11.06.2021 17:27 23,8 C 48 % 1020,4 hPa 0,0 l/m 0,6 km/h (0 Bft) 2,9 km/h (1 Bft)
11.06.2021 16:27 25,8 C 47 % 1020,2 hPa 0,0 l/m 2,6 km/h (1 Bft) 3,1 km/h (1 Bft)
11.06.2021 15:27 25,5 C 48 % 1020,2 hPa 0,0 l/m 1,4 km/h (1 Bft) 2,3 km/h (1 Bft)
11.06.2021 14:27 26,5 C 45 % 1020,5 hPa 0,0 l/m 2,9 km/h (1 Bft) 1,9 km/h (1 Bft)
_ Min-Zeit 02:27 14:27 13:00 - 07:57 09:57
Minimum _ 13,3 C 45 % 1017,9 hPa - 0,0 km/h (0 Bft) 0,0 km/h (0 Bft)
_ Max-Zeit 14:27 04:27 00:57 13:00 10:27 10:27
Maximum _ 26,5 C 85 % 1020,7 hPa 0,0 l/m 3,4 km/h
W-NW (1 Bft)
4,3 km/h
W-NW (1 Bft)
Durchschnitt _ 19,9 C 68 % 1019,9 hPa #0,0 l/m 0,9 km/h (0 Bft) 0,8 km/h (0 Bft)
© 2021 Michael Jger webmaster [at] putzkau.de